createdAt,value
2023-03-24T00:00:39.039Z,16.10
2023-03-24T00:02:45.388Z,16.00
2023-03-24T00:04:49.646Z,16.10
2023-03-24T00:06:54.046Z,16.00
2023-03-24T00:08:56.833Z,16.10
2023-03-24T00:11:02.158Z,16.10
2023-03-24T00:13:05.994Z,16.10
2023-03-24T00:15:13.325Z,16.10
2023-03-24T00:17:17.474Z,16.10
2023-03-24T00:19:22.621Z,16.20
2023-03-24T00:21:26.549Z,16.20
2023-03-24T00:23:32.499Z,16.20
2023-03-24T00:25:36.396Z,16.10
2023-03-24T00:27:39.952Z,16.00
2023-03-24T00:29:42.739Z,16.00
2023-03-24T00:31:45.912Z,16.00
2023-03-24T00:33:50.976Z,16.10
2023-03-24T00:35:55.230Z,16.10
2023-03-24T00:37:58.364Z,16.00
2023-03-24T00:40:01.130Z,16.00
2023-03-24T00:42:04.100Z,16.00
2023-03-24T00:44:07.161Z,16.00
2023-03-24T00:46:14.027Z,16.00
2023-03-24T00:48:20.069Z,15.90
2023-03-24T00:50:27.177Z,16.00
2023-03-24T00:52:34.110Z,16.10
2023-03-24T00:54:37.636Z,16.10
2023-03-24T00:56:41.441Z,15.90
2023-03-24T00:58:44.299Z,16.00
2023-03-24T01:00:48.122Z,15.90
2023-03-24T01:02:53.754Z,16.00
2023-03-24T01:04:58.919Z,16.00
2023-03-24T01:07:01.624Z,16.10
2023-03-24T01:09:07.137Z,15.90
2023-03-24T01:11:10.405Z,16.00
2023-03-24T01:13:13.132Z,16.00
2023-03-24T01:15:18.115Z,16.10
2023-03-24T01:17:22.393Z,16.10
2023-03-24T01:19:25.464Z,16.00
2023-03-24T01:21:28.297Z,16.00
2023-03-24T01:23:31.663Z,16.00
2023-03-24T01:25:38.843Z,16.10
2023-03-24T01:27:41.654Z,16.10
2023-03-24T01:29:44.519Z,16.10
2023-03-24T01:31:47.276Z,16.00
2023-03-24T01:33:50.355Z,16.10
2023-03-24T01:35:53.159Z,16.20
2023-03-24T01:37:56.175Z,16.30
2023-03-24T01:39:58.915Z,16.20
2023-03-24T01:42:03.076Z,16.20
2023-03-24T01:44:25.562Z,16.20
2023-03-24T01:46:29.733Z,16.10
2023-03-24T01:48:37.179Z,16.10
2023-03-24T01:50:41.130Z,16.10
2023-03-24T01:52:43.831Z,16.20
2023-03-24T01:54:50.116Z,16.20
2023-03-24T01:56:56.227Z,16.10
2023-03-24T01:59:04.754Z,16.20
2023-03-24T02:01:08.256Z,16.20
2023-03-24T02:03:17.231Z,16.20
2023-03-24T02:05:19.982Z,16.20
2023-03-24T02:07:33.559Z,16.10
2023-03-24T02:09:36.624Z,16.10
2023-03-24T02:11:41.122Z,16.10
2023-03-24T02:13:43.881Z,16.10
2023-03-24T02:15:57.028Z,16.10
2023-03-24T02:18:08.068Z,16.10
2023-03-24T02:20:52.096Z,16.20
2023-03-24T02:23:29.525Z,16.20
2023-03-24T02:25:52.285Z,16.20
2023-03-24T02:28:13.420Z,16.20
2023-03-24T02:30:46.473Z,16.20
2023-03-24T02:33:34.036Z,16.10
2023-03-24T02:36:15.723Z,16.20
2023-03-24T02:38:40.320Z,16.30
2023-03-24T02:40:48.631Z,16.30
2023-03-24T02:43:03.261Z,16.20
2023-03-24T02:45:20.716Z,16.20
2023-03-24T02:47:29.199Z,16.30
2023-03-24T02:49:39.108Z,16.30
2023-03-24T02:51:52.549Z,16.30
2023-03-24T02:54:04.356Z,16.30
2023-03-24T02:56:13.297Z,16.10
2023-03-24T02:58:20.658Z,16.10
2023-03-24T03:00:30.823Z,16.10
2023-03-24T03:02:37.003Z,16.10
2023-03-24T03:04:46.556Z,16.10
2023-03-24T03:06:54.619Z,16.10
2023-03-24T03:08:59.895Z,16.10
2023-03-24T03:11:04.877Z,16.10
2023-03-24T03:13:12.235Z,16.20
2023-03-24T03:15:20.555Z,16.20
2023-03-24T03:17:28.480Z,16.20
2023-03-24T03:19:35.800Z,16.20
2023-03-24T03:21:42.502Z,16.20
2023-03-24T03:23:50.901Z,16.10
2023-03-24T03:26:05.572Z,16.00
2023-03-24T03:28:13.079Z,16.20
2023-03-24T03:30:19.412Z,16.20
2023-03-24T03:32:28.405Z,16.30
2023-03-24T03:34:40.511Z,16.30
2023-03-24T03:36:49.044Z,16.30
2023-03-24T03:39:01.297Z,16.40
2023-03-24T03:41:05.631Z,16.40
2023-03-24T03:43:09.925Z,16.30
2023-03-24T03:45:14.295Z,16.30
2023-03-24T03:47:18.996Z,16.30
2023-03-24T03:49:22.777Z,16.30
2023-03-24T03:51:25.938Z,16.30
2023-03-24T03:53:34.877Z,16.30
2023-03-24T03:55:38.219Z,16.20
2023-03-24T03:57:42.060Z,16.20
2023-03-24T03:59:46.147Z,16.10
2023-03-24T04:01:49.315Z,16.10
2023-03-24T04:04:07.808Z,16.10
2023-03-24T04:06:19.773Z,16.20
2023-03-24T04:08:28.340Z,16.20
2023-03-24T04:10:42.840Z,16.10
2023-03-24T04:12:58.250Z,16.00
2023-03-24T04:15:16.966Z,16.00
2023-03-24T04:17:30.176Z,16.00
2023-03-24T04:19:45.740Z,16.10
2023-03-24T04:22:00.486Z,16.10
2023-03-24T04:24:17.541Z,16.20
2023-03-24T04:26:27.453Z,16.20
2023-03-24T04:28:40.718Z,16.20
2023-03-24T04:30:48.146Z,16.20
2023-03-24T04:32:58.360Z,16.10
2023-03-24T04:35:05.409Z,16.10
2023-03-24T04:37:12.542Z,16.20
2023-03-24T04:39:25.554Z,16.20
2023-03-24T04:41:31.942Z,16.20
2023-03-24T04:43:37.478Z,16.30
2023-03-24T04:45:41.711Z,16.20
2023-03-24T04:47:49.784Z,16.20
2023-03-24T04:49:52.592Z,16.20
2023-03-24T04:51:55.748Z,16.20
2023-03-24T04:53:58.588Z,16.20
2023-03-24T04:56:14.446Z,16.30
2023-03-24T04:58:17.199Z,16.20
2023-03-24T05:00:20.051Z,16.20
2023-03-24T05:02:22.755Z,16.20
2023-03-24T05:04:28.731Z,16.20
2023-03-24T05:06:31.794Z,16.10
2023-03-24T05:08:34.580Z,16.10
2023-03-24T05:10:37.604Z,16.10
2023-03-24T05:12:40.330Z,16.10
2023-03-24T05:14:43.267Z,16.10
2023-03-24T05:16:46.133Z,16.10
2023-03-24T05:18:49.090Z,16.00
2023-03-24T05:20:53.715Z,16.00
2023-03-24T05:22:56.796Z,16.10
2023-03-24T05:24:59.540Z,16.10
2023-03-24T05:27:02.297Z,16.00
2023-03-24T05:29:05.242Z,16.00
2023-03-24T05:31:08.154Z,15.90
2023-03-24T05:33:11.062Z,16.00
2023-03-24T05:35:13.942Z,16.10
2023-03-24T05:37:18.210Z,16.00
2023-03-24T05:39:21.130Z,16.00
2023-03-24T05:41:23.885Z,16.00
2023-03-24T05:43:27.302Z,16.10
2023-03-24T05:45:30.492Z,16.00
2023-03-24T05:47:33.228Z,16.00
2023-03-24T05:49:36.657Z,16.10
2023-03-24T05:51:39.360Z,16.00
2023-03-24T05:53:43.462Z,16.00
2023-03-24T05:55:46.950Z,16.00
2023-03-24T05:57:49.828Z,16.10
2023-03-24T05:59:53.155Z,16.10
2023-03-24T06:01:56.892Z,16.20
2023-03-24T06:03:59.827Z,16.30
2023-03-24T06:06:02.566Z,16.30
2023-03-24T06:08:05.738Z,16.20
2023-03-24T06:10:11.427Z,16.30
2023-03-24T06:12:16.159Z,16.30
2023-03-24T06:14:19.026Z,16.20
2023-03-24T06:16:25.252Z,16.20
2023-03-24T06:18:28.300Z,16.20
2023-03-24T06:20:31.056Z,16.10
2023-03-24T06:22:36.288Z,16.10
2023-03-24T06:24:39.408Z,16.00
2023-03-24T06:26:44.640Z,16.10
2023-03-24T06:28:47.483Z,16.20
2023-03-24T06:30:50.256Z,16.10
2023-03-24T06:32:53.039Z,16.10
2023-03-24T06:34:56.170Z,16.10
2023-03-24T06:36:58.897Z,16.10
2023-03-24T06:39:02.156Z,16.20
2023-03-24T06:41:06.084Z,16.20
2023-03-24T06:43:10.292Z,16.20
2023-03-24T06:45:13.146Z,16.30
2023-03-24T06:47:16.438Z,16.30
2023-03-24T06:49:19.199Z,16.30
2023-03-24T06:51:21.960Z,16.30
2023-03-24T06:53:24.740Z,16.40
2023-03-24T06:55:27.991Z,16.50
2023-03-24T06:57:30.948Z,16.60
2023-03-24T06:59:35.267Z,16.60
2023-03-24T07:01:38.638Z,16.70
2023-03-24T07:03:42.871Z,16.80
2023-03-24T07:05:46.715Z,16.80
2023-03-24T07:09:56.594Z,16.70
2023-03-24T07:11:59.514Z,16.70
2023-03-24T07:14:02.271Z,16.80
2023-03-24T07:16:07.101Z,16.80
2023-03-24T07:18:09.944Z,16.80
2023-03-24T07:20:12.998Z,16.80
2023-03-24T07:22:15.946Z,16.80
2023-03-24T07:24:19.631Z,16.90
2023-03-24T07:26:22.386Z,16.90
2023-03-24T07:28:25.346Z,17.10
2023-03-24T07:30:39.419Z,17.30
2023-03-24T07:32:44.880Z,17.40
2023-03-24T07:34:48.689Z,17.50
2023-03-24T07:36:51.430Z,17.50
2023-03-24T07:38:54.134Z,17.50
2023-03-24T07:40:58.693Z,17.50
2023-03-24T07:43:02.886Z,17.60
2023-03-24T07:45:08.836Z,17.50
2023-03-24T07:47:12.353Z,17.50
2023-03-24T07:49:19.719Z,17.50
2023-03-24T07:51:22.913Z,17.30
2023-03-24T07:53:26.057Z,17.30
2023-03-24T07:55:28.837Z,17.40
2023-03-24T07:57:32.280Z,17.40
2023-03-24T07:59:35.223Z,17.20
2023-03-24T08:01:38.924Z,17.10
2023-03-24T08:03:42.281Z,17.00
2023-03-24T08:05:47.254Z,16.90
2023-03-24T08:07:53.760Z,17.00
2023-03-24T08:09:56.664Z,17.20
2023-03-24T08:12:06.963Z,17.20
2023-03-24T08:14:16.488Z,17.00
2023-03-24T08:16:19.261Z,16.80
2023-03-24T08:18:22.852Z,16.60
2023-03-24T08:20:27.309Z,16.20
2023-03-24T08:22:32.138Z,15.70
2023-03-24T08:24:37.360Z,15.60
2023-03-24T08:26:42.686Z,15.50
2023-03-24T08:28:45.464Z,15.60
2023-03-24T08:30:49.509Z,15.70
2023-03-24T08:32:54.271Z,16.00
2023-03-24T08:34:58.717Z,16.30
2023-03-24T08:37:02.127Z,16.70
2023-03-24T08:39:09.710Z,16.80
2023-03-24T08:41:12.432Z,16.80
2023-03-24T08:43:17.246Z,17.00
2023-03-24T08:45:21.876Z,17.40
2023-03-24T08:47:24.609Z,17.50
2023-03-24T08:49:27.365Z,17.70
2023-03-24T08:51:30.388Z,17.80
2023-03-24T08:53:33.190Z,17.70
2023-03-24T08:55:41.660Z,17.60
2023-03-24T08:57:44.673Z,17.40
2023-03-24T08:59:48.471Z,17.30
2023-03-24T09:01:52.923Z,17.30
2023-03-24T09:03:55.716Z,17.20
2023-03-24T09:05:59.438Z,17.20
2023-03-24T09:08:03.341Z,17.40
2023-03-24T09:10:07.515Z,17.60
2023-03-24T09:12:11.613Z,17.70
2023-03-24T09:14:14.364Z,17.70
2023-03-24T09:16:18.205Z,17.80
2023-03-24T09:18:22.438Z,17.80
2023-03-24T09:20:25.642Z,17.80
2023-03-24T09:22:28.535Z,18.10
2023-03-24T09:24:31.270Z,18.30
2023-03-24T09:26:34.288Z,18.40
2023-03-24T09:28:38.406Z,18.30
2023-03-24T09:30:41.306Z,18.10
2023-03-24T09:32:45.007Z,18.20
2023-03-24T09:34:47.904Z,18.30
2023-03-24T09:36:50.752Z,18.10
2023-03-24T09:38:53.514Z,17.90
2023-03-24T09:41:00.772Z,17.60
2023-03-24T09:43:07.661Z,17.70
2023-03-24T09:45:17.905Z,17.70
2023-03-24T09:47:29.026Z,17.70
2023-03-24T09:49:36.452Z,17.80
2023-03-24T09:51:43.918Z,17.40
2023-03-24T09:53:53.583Z,17.40
2023-03-24T09:55:56.759Z,17.40
2023-03-24T09:58:05.693Z,17.60
2023-03-24T10:00:22.076Z,17.70
2023-03-24T10:02:24.938Z,17.80
2023-03-24T10:04:32.016Z,18.00
2023-03-24T10:06:41.883Z,17.80
2023-03-24T10:08:46.803Z,17.80
2023-03-24T10:11:00.382Z,17.70
2023-03-24T10:13:08.613Z,17.90
2023-03-24T10:15:30.959Z,18.00
2023-03-24T10:17:46.788Z,18.00
2023-03-24T10:20:00.022Z,18.00
2023-03-24T10:22:10.238Z,18.00
2023-03-24T10:24:19.820Z,18.00
2023-03-24T10:26:41.013Z,17.70
2023-03-24T10:28:48.883Z,17.50
2023-03-24T10:30:55.091Z,17.70
2023-03-24T10:32:58.311Z,17.90
2023-03-24T10:35:09.093Z,18.10
2023-03-24T10:37:12.663Z,18.40
2023-03-24T10:39:22.350Z,18.60
2023-03-24T10:41:29.681Z,18.60
2023-03-24T10:43:33.327Z,18.60
2023-03-24T10:45:39.173Z,18.50
2023-03-24T10:47:44.633Z,18.30
2023-03-24T10:49:55.554Z,18.20
2023-03-24T10:52:03.865Z,18.10
2023-03-24T10:54:16.867Z,17.90
2023-03-24T10:56:39.339Z,17.90
2023-03-24T10:58:44.210Z,18.00
2023-03-24T11:00:47.975Z,18.00
2023-03-24T11:02:58.445Z,17.90
2023-03-24T11:05:03.750Z,18.00
2023-03-24T11:07:14.980Z,18.10
2023-03-24T11:09:21.861Z,18.10
2023-03-24T11:11:31.572Z,18.20
2023-03-24T11:13:35.321Z,18.10
2023-03-24T11:15:38.100Z,18.10
2023-03-24T11:17:42.396Z,18.20
2023-03-24T11:19:53.896Z,18.40
2023-03-24T11:22:03.309Z,18.70
2023-03-24T11:24:12.607Z,18.80
2023-03-24T11:26:17.508Z,18.90
2023-03-24T11:28:26.320Z,19.00
2023-03-24T11:30:34.588Z,19.10
2023-03-24T11:32:37.530Z,19.00
2023-03-24T11:34:45.595Z,19.20
2023-03-24T11:36:52.604Z,19.20
2023-03-24T11:39:01.133Z,18.90
2023-03-24T11:41:05.820Z,18.20
2023-03-24T11:43:21.922Z,18.20
2023-03-24T11:45:28.906Z,18.10
2023-03-24T11:47:33.265Z,18.20
2023-03-24T11:49:42.459Z,18.10
2023-03-24T11:51:48.729Z,18.10
2023-03-24T11:53:55.710Z,18.00
2023-03-24T11:56:03.987Z,17.80
2023-03-24T11:58:17.492Z,18.00
2023-03-24T12:00:27.526Z,18.00
2023-03-24T12:02:48.669Z,18.10
2023-03-24T12:05:17.381Z,18.30
2023-03-24T12:07:40.606Z,18.40
2023-03-24T12:09:52.185Z,18.50
2023-03-24T12:12:14.039Z,18.70
2023-03-24T12:14:27.640Z,19.20
2023-03-24T12:16:51.798Z,19.60
2023-03-24T12:19:31.334Z,19.90
2023-03-24T12:21:49.412Z,19.80
2023-03-24T12:23:59.136Z,19.80
2023-03-24T12:26:14.235Z,19.80
2023-03-24T12:28:45.890Z,20.00
2023-03-24T12:31:00.809Z,20.00
2023-03-24T12:33:31.241Z,20.00
2023-03-24T12:36:00.449Z,19.60
2023-03-24T12:38:17.412Z,19.40
2023-03-24T12:40:45.295Z,19.20
2023-03-24T12:42:54.709Z,19.20
2023-03-24T12:45:26.201Z,19.40
2023-03-24T12:47:44.860Z,19.50
2023-03-24T12:50:10.892Z,19.30
2023-03-24T12:52:26.508Z,19.30
2023-03-24T12:54:38.005Z,18.80
2023-03-24T12:56:44.340Z,19.00
2023-03-24T12:58:52.997Z,19.20
2023-03-24T13:01:07.595Z,19.40
2023-03-24T13:03:15.516Z,19.50
2023-03-24T13:05:22.410Z,19.20
2023-03-24T13:07:28.544Z,19.40
2023-03-24T13:09:40.114Z,19.40
2023-03-24T13:11:50.935Z,19.50
2023-03-24T13:13:56.474Z,19.70
2023-03-24T13:16:02.796Z,19.70
2023-03-24T13:18:19.044Z,19.60
2023-03-24T13:20:27.239Z,19.50
2023-03-24T13:22:31.178Z,19.60
2023-03-24T13:24:34.156Z,19.60
2023-03-24T13:26:39.925Z,19.70
2023-03-24T13:28:53.391Z,19.70
2023-03-24T13:30:58.445Z,19.80
2023-03-24T13:33:07.674Z,20.10
2023-03-24T13:35:18.508Z,20.20
2023-03-24T13:37:24.325Z,20.20
2023-03-24T13:39:28.898Z,20.40
2023-03-24T13:41:37.587Z,20.40
2023-03-24T13:43:49.529Z,20.50
2023-03-24T13:45:59.157Z,20.50
2023-03-24T13:48:18.235Z,20.50
2023-03-24T13:50:21.216Z,20.30
2023-03-24T13:52:32.116Z,20.40
2023-03-24T13:54:37.579Z,20.30
2023-03-24T13:56:42.869Z,20.20
2023-03-24T13:59:05.782Z,20.10
2023-03-24T14:01:19.269Z,20.10
2023-03-24T14:03:34.869Z,20.10
2023-03-24T14:05:59.332Z,20.00
2023-03-24T14:08:18.808Z,19.50
2023-03-24T14:10:46.492Z,19.50
2023-03-24T14:12:54.188Z,19.50
2023-03-24T14:15:27.177Z,19.50
2023-03-24T14:17:30.033Z,19.60
2023-03-24T14:19:39.292Z,19.60
2023-03-24T14:21:42.497Z,19.30
2023-03-24T14:23:48.123Z,19.30
2023-03-24T14:25:55.393Z,19.40
2023-03-24T14:28:16.514Z,19.90
2023-03-24T14:30:24.667Z,19.60
2023-03-24T14:32:27.731Z,19.50
2023-03-24T14:34:31.448Z,18.90
2023-03-24T14:36:39.247Z,18.60
2023-03-24T14:38:45.329Z,18.50
2023-03-24T14:40:50.901Z,18.90
2023-03-24T14:42:56.625Z,19.00
2023-03-24T14:45:00.726Z,19.00
2023-03-24T14:47:04.505Z,19.30
2023-03-24T14:49:16.552Z,19.10
2023-03-24T14:51:41.376Z,19.30
2023-03-24T14:53:44.328Z,19.60
2023-03-24T14:55:48.581Z,19.90
2023-03-24T14:57:54.750Z,20.00
2023-03-24T15:00:07.072Z,20.20
2023-03-24T15:02:30.453Z,20.10
2023-03-24T15:04:39.268Z,20.10
2023-03-24T15:06:47.340Z,19.90
2023-03-24T15:08:52.572Z,20.00
2023-03-24T15:11:01.185Z,19.90
2023-03-24T15:15:27.164Z,19.40
2023-03-24T15:17:30.020Z,19.20
2023-03-24T15:19:33.722Z,19.20
2023-03-24T15:21:38.342Z,19.00
2023-03-24T15:23:47.906Z,19.00
2023-03-24T15:25:52.288Z,18.90
2023-03-24T15:27:56.803Z,18.70
2023-03-24T15:30:01.082Z,18.60
2023-03-24T15:32:04.938Z,18.90
2023-03-24T15:34:25.019Z,19.20
2023-03-24T15:36:28.131Z,19.40
2023-03-24T15:38:33.331Z,19.40
2023-03-24T15:40:40.508Z,19.30
2023-03-24T15:42:45.974Z,19.30
2023-03-24T15:44:49.179Z,19.30
2023-03-24T15:46:55.481Z,19.30
2023-03-24T15:49:00.686Z,19.30
2023-03-24T15:51:05.536Z,19.20
2023-03-24T15:53:24.713Z,19.20
2023-03-24T15:55:31.710Z,19.10
2023-03-24T15:57:41.879Z,19.10
2023-03-24T15:59:48.170Z,19.00
2023-03-24T16:01:51.607Z,18.90
2023-03-24T16:03:55.768Z,19.00
2023-03-24T16:05:58.752Z,19.00
2023-03-24T16:08:04.270Z,19.10
2023-03-24T16:10:09.917Z,19.20
2023-03-24T16:12:12.942Z,19.20
2023-03-24T16:14:23.025Z,19.10
2023-03-24T16:16:28.723Z,18.90
2023-03-24T16:18:34.035Z,18.70
2023-03-24T16:20:37.326Z,18.50
2023-03-24T16:22:41.839Z,18.60
2023-03-24T16:24:44.771Z,18.60
2023-03-24T16:26:48.407Z,18.60
2023-03-24T16:28:52.598Z,18.60
2023-03-24T16:31:01.787Z,18.50
2023-03-24T16:33:05.022Z,18.50
2023-03-24T16:35:09.718Z,18.50
2023-03-24T16:37:12.647Z,18.50
2023-03-24T16:39:18.113Z,18.70
2023-03-24T16:41:22.072Z,18.70
2023-03-24T16:43:25.762Z,18.70
2023-03-24T16:45:28.891Z,18.50
2023-03-24T16:47:33.217Z,18.60
2023-03-24T16:49:37.464Z,18.50
2023-03-24T16:51:40.670Z,18.50
2023-03-24T16:53:44.268Z,18.30
2023-03-24T16:55:47.606Z,18.20
2023-03-24T16:57:50.472Z,18.20
2023-03-24T16:59:53.488Z,18.20
2023-03-24T17:02:03.985Z,18.20
2023-03-24T17:04:12.062Z,18.20
2023-03-24T17:06:15.477Z,18.10
2023-03-24T17:08:19.585Z,18.00
2023-03-24T17:10:23.732Z,17.80
2023-03-24T17:12:28.021Z,17.70
2023-03-24T17:14:31.601Z,17.60
2023-03-24T17:16:36.918Z,17.60
2023-03-24T17:18:39.915Z,17.50
2023-03-24T17:20:44.182Z,17.40
2023-03-24T17:22:49.742Z,17.40
2023-03-24T17:24:57.664Z,17.40
2023-03-24T17:27:01.492Z,17.30
2023-03-24T17:29:04.904Z,17.20
2023-03-24T17:31:07.775Z,17.20
2023-03-24T17:33:14.539Z,17.10
2023-03-24T17:35:20.102Z,17.20
2023-03-24T17:37:26.565Z,17.20
2023-03-24T17:39:30.105Z,17.10
2023-03-24T17:41:33.101Z,17.10
2023-03-24T17:43:35.999Z,17.00
2023-03-24T17:45:40.412Z,17.00
2023-03-24T17:47:43.736Z,17.00
2023-03-24T17:49:47.454Z,17.00
2023-03-24T17:51:50.674Z,17.00
2023-03-24T17:53:55.138Z,17.00
2023-03-24T17:55:59.555Z,17.00
2023-03-24T17:58:02.523Z,17.00
2023-03-24T18:00:08.819Z,17.00
2023-03-24T18:02:14.174Z,17.00
2023-03-24T18:04:17.334Z,17.00
2023-03-24T18:06:20.307Z,17.00
2023-03-24T18:08:23.293Z,17.00
2023-03-24T18:10:27.536Z,16.90
2023-03-24T18:12:30.655Z,17.00
2023-03-24T18:14:33.535Z,16.30
2023-03-24T18:16:37.288Z,15.70
2023-03-24T18:18:41.287Z,15.30
2023-03-24T18:20:44.094Z,15.00
2023-03-24T18:22:47.105Z,14.40
2023-03-24T18:24:49.914Z,14.60
2023-03-24T18:26:54.126Z,14.10
2023-03-24T18:28:56.897Z,14.00
2023-03-24T18:31:00.280Z,13.80
2023-03-24T18:33:03.143Z,13.30
2023-03-24T18:35:07.797Z,13.20
2023-03-24T18:37:14.464Z,13.30
2023-03-24T18:39:18.013Z,13.20
2023-03-24T18:41:20.967Z,12.80
2023-03-24T18:43:25.316Z,13.00
2023-03-24T18:45:28.345Z,13.00
2023-03-24T18:47:31.271Z,13.40
2023-03-24T18:49:34.117Z,12.80
2023-03-24T18:51:37.152Z,13.20
2023-03-24T18:53:40.345Z,13.30
2023-03-24T18:55:47.764Z,12.80
2023-03-24T18:57:50.792Z,13.00
2023-03-24T18:59:55.110Z,13.00
2023-03-24T19:01:58.071Z,13.30
2023-03-24T19:04:00.977Z,13.10
2023-03-24T19:06:06.209Z,12.80
2023-03-24T19:08:09.504Z,12.80
2023-03-24T19:10:12.712Z,12.70
2023-03-24T19:12:17.119Z,12.80
2023-03-24T19:14:20.039Z,13.10
2023-03-24T19:16:24.571Z,13.30
2023-03-24T19:18:27.983Z,13.50
2023-03-24T19:20:30.864Z,13.60
2023-03-24T19:22:33.768Z,13.30
2023-03-24T19:24:36.990Z,13.50
2023-03-24T19:26:40.387Z,13.50
2023-03-24T19:28:43.736Z,13.60
2023-03-24T19:30:46.746Z,13.50
2023-03-24T19:32:51.130Z,13.60
2023-03-24T19:34:54.075Z,13.70
2023-03-24T19:36:56.985Z,13.60
2023-03-24T19:38:59.871Z,13.40
2023-03-24T19:41:06.992Z,13.20
2023-03-24T19:43:10.166Z,13.30
2023-03-24T19:45:15.623Z,13.40
2023-03-24T19:47:18.512Z,13.50
2023-03-24T19:49:23.032Z,13.60
2023-03-24T19:51:25.856Z,13.70
2023-03-24T19:53:29.410Z,13.70
2023-03-24T19:55:32.372Z,13.20
2023-03-24T19:57:35.660Z,13.30
2023-03-24T19:59:38.589Z,13.40
2023-03-24T20:01:41.546Z,13.30
2023-03-24T20:03:44.456Z,13.30
2023-03-24T20:05:49.472Z,13.00
2023-03-24T20:07:55.252Z,12.60
2023-03-24T20:09:58.143Z,12.90
2023-03-24T20:12:01.026Z,13.10
2023-03-24T20:14:03.835Z,13.20
2023-03-24T20:16:07.184Z,12.60
2023-03-24T20:18:10.713Z,12.50
2023-03-24T20:20:15.289Z,12.80
2023-03-24T20:22:19.406Z,12.70
2023-03-24T20:24:22.294Z,12.60
2023-03-24T20:26:25.132Z,12.80
2023-03-24T20:28:28.354Z,12.90
2023-03-24T20:30:32.610Z,12.80
2023-03-24T20:32:35.894Z,13.00
2023-03-24T20:34:39.745Z,12.90
2023-03-24T20:36:43.265Z,13.10
2023-03-24T20:38:47.374Z,13.10
2023-03-24T20:40:58.761Z,13.20
2023-03-24T20:43:01.570Z,13.30
2023-03-24T20:45:04.877Z,13.50
2023-03-24T20:47:07.759Z,13.70
2023-03-24T20:49:14.201Z,13.50
2023-03-24T20:51:18.416Z,13.50
2023-03-24T20:53:22.570Z,13.20
2023-03-24T20:55:26.744Z,13.20
2023-03-24T20:57:31.230Z,13.00
2023-03-24T20:59:34.136Z,12.90
2023-03-24T21:01:37.295Z,13.20
2023-03-24T21:03:40.869Z,13.10
2023-03-24T21:05:43.711Z,13.10
2023-03-24T21:07:46.505Z,13.00
2023-03-24T21:09:49.262Z,12.80
2023-03-24T21:11:54.104Z,12.70
2023-03-24T21:13:57.139Z,12.80
2023-03-24T21:16:00.022Z,12.80
2023-03-24T21:18:02.839Z,12.90
2023-03-24T21:20:10.581Z,12.90
2023-03-24T21:22:14.901Z,12.90
2023-03-24T21:24:17.810Z,13.00
2023-03-24T21:26:20.774Z,13.10
2023-03-24T21:28:28.110Z,13.20
2023-03-24T21:30:31.384Z,13.30
2023-03-24T21:32:36.815Z,13.30
2023-03-24T21:34:39.648Z,13.20
2023-03-24T21:36:42.514Z,13.30
2023-03-24T21:38:49.475Z,13.30
2023-03-24T21:40:58.337Z,13.30
2023-03-24T21:43:05.130Z,13.30
2023-03-24T21:45:12.761Z,13.30
2023-03-24T21:47:18.331Z,13.40
2023-03-24T21:49:22.910Z,13.30
2023-03-24T21:51:30.559Z,13.20
2023-03-24T21:53:34.912Z,13.20
2023-03-24T21:55:37.865Z,13.20
2023-03-24T21:57:40.623Z,13.20
2023-03-24T21:59:43.492Z,13.10
2023-03-24T22:01:47.755Z,13.00
2023-03-24T22:03:54.312Z,13.00
2023-03-24T22:05:58.267Z,13.00
2023-03-24T22:08:02.455Z,12.90
2023-03-24T22:10:07.022Z,12.80
2023-03-24T22:12:10.365Z,12.70
2023-03-24T22:14:13.316Z,12.60
2023-03-24T22:16:16.147Z,12.40
2023-03-24T22:18:20.387Z,12.60
2023-03-24T22:20:23.841Z,12.60
2023-03-24T22:22:27.039Z,12.60
2023-03-24T22:24:31.112Z,12.70
2023-03-24T22:26:33.922Z,12.80
2023-03-24T22:28:37.649Z,12.80
2023-03-24T22:30:41.663Z,12.80
2023-03-24T22:32:44.617Z,12.80
2023-03-24T22:34:48.788Z,12.90
2023-03-24T22:36:51.667Z,13.00
2023-03-24T22:38:54.525Z,13.00
2023-03-24T22:40:58.714Z,13.00
2023-03-24T22:43:01.758Z,13.00
2023-03-24T22:45:04.816Z,13.10
2023-03-24T22:47:07.598Z,13.10
2023-03-24T22:49:10.432Z,13.00
2023-03-24T22:51:19.203Z,13.00
2023-03-24T22:53:22.298Z,13.00
2023-03-24T22:55:26.019Z,13.00
2023-03-24T22:57:28.890Z,12.90
2023-03-24T22:59:33.176Z,12.90
2023-03-24T23:01:36.065Z,12.90
2023-03-24T23:03:38.940Z,12.80
2023-03-24T23:05:42.214Z,12.80
2023-03-24T23:07:47.378Z,12.80
2023-03-24T23:09:50.533Z,12.90
2023-03-24T23:11:54.894Z,12.90
2023-03-24T23:14:05.149Z,12.90
2023-03-24T23:16:08.869Z,12.90
2023-03-24T23:18:11.877Z,12.80
2023-03-24T23:20:18.117Z,12.90
2023-03-24T23:22:22.087Z,12.80
2023-03-24T23:24:26.624Z,12.90
2023-03-24T23:26:30.176Z,13.00
2023-03-24T23:28:33.730Z,13.00
2023-03-24T23:30:37.201Z,13.00
2023-03-24T23:32:41.239Z,13.10
2023-03-24T23:34:46.059Z,13.20
2023-03-24T23:36:50.744Z,13.30
2023-03-24T23:38:54.530Z,13.30
2023-03-24T23:40:59.046Z,13.30
2023-03-24T23:43:03.242Z,13.30
2023-03-24T23:45:07.225Z,13.50
2023-03-24T23:47:10.049Z,13.50
2023-03-24T23:49:12.801Z,13.50
2023-03-24T23:51:15.607Z,13.60
2023-03-24T23:53:18.422Z,13.40
2023-03-24T23:55:21.599Z,13.40
2023-03-24T23:57:26.050Z,13.40
2023-03-24T23:59:28.985Z,13.40
